sensor_id;sensor_type;location;lat;lon;timestamp;pressure;altitude;pressure_sealevel;temperature;humidity
74552;BME280;63025;55.472;38.432;2022-12-18T00:00:57;99649.81;;;-1.65;80.86
74552;BME280;63025;55.472;38.432;2022-12-18T00:03:23;99634.00;;;-1.65;81.43
74552;BME280;63025;55.472;38.432;2022-12-18T00:05:50;99631.94;;;-1.71;81.40
74552;BME280;63025;55.472;38.432;2022-12-18T00:08:17;99635.41;;;-1.70;81.77
74552;BME280;63025;55.472;38.432;2022-12-18T00:10:44;99624.47;;;-1.75;81.52
74552;BME280;63025;55.472;38.432;2022-12-18T00:13:10;99617.53;;;-1.67;81.61
74552;BME280;63025;55.472;38.432;2022-12-18T00:15:38;99610.75;;;-1.69;81.79
74552;BME280;63025;55.472;38.432;2022-12-18T00:18:04;99610.88;;;-1.71;81.72
74552;BME280;63025;55.472;38.432;2022-12-18T00:20:31;99604.09;;;-1.73;81.53
74552;BME280;63025;55.472;38.432;2022-12-18T00:22:57;99593.81;;;-1.67;82.18
74552;BME280;63025;55.472;38.432;2022-12-18T00:25:22;99584.66;;;-1.72;81.70
74552;BME280;63025;55.472;38.432;2022-12-18T00:27:49;99581.22;;;-1.73;82.35
74552;BME280;63025;55.472;38.432;2022-12-18T00:30:14;99581.34;;;-1.74;82.09
74552;BME280;63025;55.472;38.432;2022-12-18T00:32:40;99578.56;;;-1.73;81.95
74552;BME280;63025;55.472;38.432;2022-12-18T00:35:07;99583.56;;;-1.70;82.13
74552;BME280;63025;55.472;38.432;2022-12-18T00:37:36;99578.44;;;-1.71;82.11
74552;BME280;63025;55.472;38.432;2022-12-18T00:40:03;99576.63;;;-1.71;82.34
74552;BME280;63025;55.472;38.432;2022-12-18T00:42:30;99576.66;;;-1.80;82.09
74552;BME280;63025;55.472;38.432;2022-12-18T00:45:14;99582.19;;;-1.74;82.30
74552;BME280;63025;55.472;38.432;2022-12-18T00:47:40;99590.19;;;-1.66;82.23
74552;BME280;63025;55.472;38.432;2022-12-18T00:50:07;99580.78;;;-1.68;81.96
74552;BME280;63025;55.472;38.432;2022-12-18T00:52:33;99582.59;;;-1.69;81.67
74552;BME280;63025;55.472;38.432;2022-12-18T00:54:59;99572.06;;;-1.69;82.01
74552;BME280;63025;55.472;38.432;2022-12-18T00:57:24;99574.25;;;-1.64;82.44
74552;BME280;63025;55.472;38.432;2022-12-18T00:59:50;99560.41;;;-1.66;82.23
74552;BME280;63025;55.472;38.432;2022-12-18T01:02:17;99544.88;;;-1.69;82.21
74552;BME280;63025;55.472;38.432;2022-12-18T01:04:43;99556.13;;;-1.67;82.00
74552;BME280;63025;55.472;38.432;2022-12-18T01:07:09;99544.59;;;-1.66;81.85
74552;BME280;63025;55.472;38.432;2022-12-18T01:09:35;99525.63;;;-1.70;82.06
74552;BME280;63025;55.472;38.432;2022-12-18T01:12:01;99522.97;;;-1.70;81.96
74552;BME280;63025;55.472;38.432;2022-12-18T01:14:27;99505.66;;;-1.72;82.05
74552;BME280;63025;55.472;38.432;2022-12-18T01:16:52;99510.09;;;-1.73;81.92
74552;BME280;63025;55.472;38.432;2022-12-18T01:19:18;99499.84;;;-1.76;81.72
74552;BME280;63025;55.472;38.432;2022-12-18T01:21:46;99502.09;;;-1.81;81.69
74552;BME280;63025;55.472;38.432;2022-12-18T01:24:12;99486.03;;;-1.88;81.62
74552;BME280;63025;55.472;38.432;2022-12-18T01:26:38;99488.25;;;-1.93;81.49
74552;BME280;63025;55.472;38.432;2022-12-18T01:29:04;99485.22;;;-1.88;81.83
74552;BME280;63025;55.472;38.432;2022-12-18T01:31:31;99477.00;;;-1.85;81.44
74552;BME280;63025;55.472;38.432;2022-12-18T01:34:00;99471.59;;;-1.83;81.51
74552;BME280;63025;55.472;38.432;2022-12-18T01:36:32;99465.22;;;-1.81;81.58
74552;BME280;63025;55.472;38.432;2022-12-18T01:39:04;99454.97;;;-1.84;81.60
74552;BME280;63025;55.472;38.432;2022-12-18T01:41:31;99458.28;;;-1.82;81.66
74552;BME280;63025;55.472;38.432;2022-12-18T01:50:34;99440.88;;;-1.93;80.88
74552;BME280;63025;55.472;38.432;2022-12-18T01:53:00;99462.47;;;-1.89;81.26
74552;BME280;63025;55.472;38.432;2022-12-18T01:55:32;99456.81;;;-1.94;81.35
74552;BME280;63025;55.472;38.432;2022-12-18T01:58:01;99452.50;;;-1.95;80.89
74552;BME280;63025;55.472;38.432;2022-12-18T02:00:27;99451.81;;;-1.97;81.49
74552;BME280;63025;55.472;38.432;2022-12-18T02:02:54;99449.50;;;-2.00;81.02
74552;BME280;63025;55.472;38.432;2022-12-18T02:05:41;99466.25;;;-2.01;81.04
74552;BME280;63025;55.472;38.432;2022-12-18T02:08:21;99468.06;;;-2.02;81.45
74552;BME280;63025;55.472;38.432;2022-12-18T02:19:00;99441.03;;;-2.04;81.34
74552;BME280;63025;55.472;38.432;2022-12-18T02:26:58;99416.25;;;-2.01;81.42
74552;BME280;63025;55.472;38.432;2022-12-18T02:29:33;99427.19;;;-2.06;80.97
74552;BME280;63025;55.472;38.432;2022-12-18T02:32:02;99429.97;;;-2.07;81.00
74552;BME280;63025;55.472;38.432;2022-12-18T02:34:31;99437.31;;;-2.01;81.41
74552;BME280;63025;55.472;38.432;2022-12-18T02:37:00;99431.47;;;-2.05;81.31
74552;BME280;63025;55.472;38.432;2022-12-18T02:39:29;99427.47;;;-1.99;81.36
74552;BME280;63025;55.472;38.432;2022-12-18T02:42:01;99426.91;;;-2.03;81.27
74552;BME280;63025;55.472;38.432;2022-12-18T02:44:34;99435.91;;;-2.05;81.08
74552;BME280;63025;55.472;38.432;2022-12-18T02:47:01;99437.19;;;-2.09;80.52
74552;BME280;63025;55.472;38.432;2022-12-18T03:00:42;99445.91;;;-1.99;80.76
74552;BME280;63025;55.472;38.432;2022-12-18T03:03:24;99446.75;;;-2.08;80.54
74552;BME280;63025;55.472;38.432;2022-12-18T03:05:53;99458.13;;;-2.08;80.67
74552;BME280;63025;55.472;38.432;2022-12-18T03:08:31;99441.50;;;-2.08;80.66
74552;BME280;63025;55.472;38.432;2022-12-18T03:11:10;99451.44;;;-2.02;81.05
74552;BME280;63025;55.472;38.432;2022-12-18T03:13:42;99433.69;;;-2.00;80.70
74552;BME280;63025;55.472;38.432;2022-12-18T03:16:16;99427.06;;;-2.04;80.72
74552;BME280;63025;55.472;38.432;2022-12-18T03:18:56;99434.25;;;-2.06;80.85
74552;BME280;63025;55.472;38.432;2022-12-18T03:21:32;99439.25;;;-2.03;80.50
74552;BME280;63025;55.472;38.432;2022-12-18T03:24:00;99448.09;;;-2.04;81.03
74552;BME280;63025;55.472;38.432;2022-12-18T03:26:29;99451.19;;;-2.09;80.93
74552;BME280;63025;55.472;38.432;2022-12-18T03:29:03;99445.47;;;-2.04;80.55
74552;BME280;63025;55.472;38.432;2022-12-18T03:31:32;99429.59;;;-2.12;80.61
74552;BME280;63025;55.472;38.432;2022-12-18T03:34:04;99415.44;;;-2.11;80.41
74552;BME280;63025;55.472;38.432;2022-12-18T03:36:40;99436.91;;;-2.16;80.50
74552;BME280;63025;55.472;38.432;2022-12-18T03:39:06;99429.31;;;-2.09;80.71
74552;BME280;63025;55.472;38.432;2022-12-18T03:44:30;99431.63;;;-2.06;80.35
74552;BME280;63025;55.472;38.432;2022-12-18T03:47:32;99433.47;;;-2.16;80.20
74552;BME280;63025;55.472;38.432;2022-12-18T03:50:35;99431.53;;;-2.14;80.58
74552;BME280;63025;55.472;38.432;2022-12-18T03:52:57;99434.16;;;-2.14;79.99
74552;BME280;63025;55.472;38.432;2022-12-18T03:55:27;99434.59;;;-2.19;79.88
74552;BME280;63025;55.472;38.432;2022-12-18T03:58:01;99440.69;;;-2.18;80.52
74552;BME280;63025;55.472;38.432;2022-12-18T04:00:37;99431.81;;;-2.17;80.75
74552;BME280;63025;55.472;38.432;2022-12-18T04:03:08;99440.69;;;-2.18;80.49
74552;BME280;63025;55.472;38.432;2022-12-18T04:05:42;99449.56;;;-2.19;80.35
74552;BME280;63025;55.472;38.432;2022-12-18T04:08:09;99447.91;;;-2.20;80.32
74552;BME280;63025;55.472;38.432;2022-12-18T04:10:39;99446.78;;;-2.28;80.42
74552;BME280;63025;55.472;38.432;2022-12-18T04:13:05;99449.16;;;-2.34;80.54
74552;BME280;63025;55.472;38.432;2022-12-18T04:15:33;99463.97;;;-2.24;80.48
74552;BME280;63025;55.472;38.432;2022-12-18T04:18:01;99470.91;;;-2.23;80.60
74552;BME280;63025;55.472;38.432;2022-12-18T04:20:35;99455.97;;;-2.32;80.30
74552;BME280;63025;55.472;38.432;2022-12-18T04:23:02;99466.75;;;-2.35;80.67
74552;BME280;63025;55.472;38.432;2022-12-18T04:25:28;99468.16;;;-2.40;80.42
74552;BME280;63025;55.472;38.432;2022-12-18T04:28:05;99474.94;;;-2.38;80.33
74552;BME280;63025;55.472;38.432;2022-12-18T04:30:32;99482.53;;;-2.35;80.93
74552;BME280;63025;55.472;38.432;2022-12-18T04:32:58;99489.47;;;-2.34;81.02
74552;BME280;63025;55.472;38.432;2022-12-18T04:35:24;99483.00;;;-2.39;80.80
74552;BME280;63025;55.472;38.432;2022-12-18T04:37:51;99488.38;;;-2.41;80.77
74552;BME280;63025;55.472;38.432;2022-12-18T04:40:17;99483.66;;;-2.47;80.75
74552;BME280;63025;55.472;38.432;2022-12-18T04:42:45;99489.06;;;-2.48;80.85
74552;BME280;63025;55.472;38.432;2022-12-18T04:45:11;99492.53;;;-2.58;80.37
74552;BME280;63025;55.472;38.432;2022-12-18T04:47:37;99491.03;;;-2.60;80.59
74552;BME280;63025;55.472;38.432;2022-12-18T04:50:03;99492.81;;;-2.51;81.00
74552;BME280;63025;55.472;38.432;2022-12-18T04:52:32;99495.59;;;-2.52;80.71
74552;BME280;63025;55.472;38.432;2022-12-18T04:54:58;99491.31;;;-2.53;80.89
74552;BME280;63025;55.472;38.432;2022-12-18T04:57:24;99512.22;;;-2.52;80.77
74552;BME280;63025;55.472;38.432;2022-12-18T04:59:50;99516.50;;;-2.51;81.00
74552;BME280;63025;55.472;38.432;2022-12-18T05:02:15;99525.91;;;-2.58;80.78
74552;BME280;63025;55.472;38.432;2022-12-18T05:04:41;99549.31;;;-2.65;81.00
74552;BME280;63025;55.472;38.432;2022-12-18T05:07:07;99549.16;;;-2.63;80.85
74552;BME280;63025;55.472;38.432;2022-12-18T05:09:33;99547.38;;;-2.63;80.75
74552;BME280;63025;55.472;38.432;2022-12-18T05:11:59;99559.41;;;-2.60;80.86
74552;BME280;63025;55.472;38.432;2022-12-18T05:14:25;99560.66;;;-2.64;80.48
74552;BME280;63025;55.472;38.432;2022-12-18T05:16:50;99555.66;;;-2.67;80.42
74552;BME280;63025;55.472;38.432;2022-12-18T05:19:16;99541.97;;;-2.71;80.58
74552;BME280;63025;55.472;38.432;2022-12-18T05:21:42;99556.75;;;-2.70;80.09
74552;BME280;63025;55.472;38.432;2022-12-18T05:24:08;99565.34;;;-2.68;80.19
74552;BME280;63025;55.472;38.432;2022-12-18T05:26:34;99576.44;;;-2.64;80.54
74552;BME280;63025;55.472;38.432;2022-12-18T05:29:00;99576.44;;;-2.64;80.29
74552;BME280;63025;55.472;38.432;2022-12-18T05:31:26;99591.25;;;-2.63;80.64
74552;BME280;63025;55.472;38.432;2022-12-18T05:33:52;99584.72;;;-2.69;80.19
74552;BME280;63025;55.472;38.432;2022-12-18T05:36:17;99596.06;;;-2.78;80.08
74552;BME280;63025;55.472;38.432;2022-12-18T05:38:43;99598.69;;;-2.78;80.11
74552;BME280;63025;55.472;38.432;2022-12-18T05:41:09;99605.06;;;-2.80;80.38
74552;BME280;63025;55.472;38.432;2022-12-18T05:43:38;99611.28;;;-2.81;79.88
74552;BME280;63025;55.472;38.432;2022-12-18T05:46:10;99614.59;;;-2.79;79.92
74552;BME280;63025;55.472;38.432;2022-12-18T05:48:37;99607.97;;;-2.83;79.57
74552;BME280;63025;55.472;38.432;2022-12-18T05:51:07;99616.56;;;-2.81;79.94
74552;BME280;63025;55.472;38.432;2022-12-18T05:53:35;99619.59;;;-2.76;79.80
74552;BME280;63025;55.472;38.432;2022-12-18T05:56:02;99620.00;;;-2.81;79.63
74552;BME280;63025;55.472;38.432;2022-12-18T05:58:28;99624.28;;;-2.80;79.73
74552;BME280;63025;55.472;38.432;2022-12-18T06:00:54;99639.94;;;-2.78;79.63
74552;BME280;63025;55.472;38.432;2022-12-18T06:03:20;99629.69;;;-2.81;80.34
74552;BME280;63025;55.472;38.432;2022-12-18T06:05:46;99629.00;;;-2.83;79.79
74552;BME280;63025;55.472;38.432;2022-12-18T06:08:12;99626.50;;;-2.85;79.58
74552;BME280;63025;55.472;38.432;2022-12-18T06:10:39;99635.22;;;-2.84;79.56
74552;BME280;63025;55.472;38.432;2022-12-18T06:13:06;99643.09;;;-2.84;79.77
74552;BME280;63025;55.472;38.432;2022-12-18T06:15:32;99645.47;;;-2.81;80.02
74552;BME280;63025;55.472;38.432;2022-12-18T06:18:00;99642.69;;;-2.80;80.00
74552;BME280;63025;55.472;38.432;2022-12-18T06:20:26;99646.16;;;-2.79;80.05
74552;BME280;63025;55.472;38.432;2022-12-18T06:22:52;99654.75;;;-2.77;79.92
74552;BME280;63025;55.472;38.432;2022-12-18T06:25:17;99639.09;;;-2.79;80.27
74552;BME280;63025;55.472;38.432;2022-12-18T06:27:43;99651.28;;;-2.78;80.10
74552;BME280;63025;55.472;38.432;2022-12-18T06:30:10;99645.19;;;-2.78;80.44
74552;BME280;63025;55.472;38.432;2022-12-18T06:32:35;99662.09;;;-2.81;79.80
74552;BME280;63025;55.472;38.432;2022-12-18T06:35:01;99665.84;;;-2.74;79.57
74552;BME280;63025;55.472;38.432;2022-12-18T06:37:30;99676.34;;;-2.74;79.90
74552;BME280;63025;55.472;38.432;2022-12-18T06:39:57;99683.16;;;-2.71;79.97
74552;BME280;63025;55.472;38.432;2022-12-18T06:42:23;99688.13;;;-2.68;79.60
74552;BME280;63025;55.472;38.432;2022-12-18T06:44:49;99698.38;;;-2.65;79.70
74552;BME280;63025;55.472;38.432;2022-12-18T06:47:15;99712.38;;;-2.65;80.04
74552;BME280;63025;55.472;38.432;2022-12-18T06:49:41;99713.47;;;-2.67;79.23
74552;BME280;63025;55.472;38.432;2022-12-18T06:52:07;99716.53;;;-2.62;79.36
74552;BME280;63025;55.472;38.432;2022-12-18T06:54:33;99722.34;;;-2.59;79.33
74552;BME280;63025;55.472;38.432;2022-12-18T06:56:58;99728.28;;;-2.66;78.68
74552;BME280;63025;55.472;38.432;2022-12-18T06:59:24;99733.97;;;-2.61;78.97
74552;BME280;63025;55.472;38.432;2022-12-18T07:01:50;99743.84;;;-2.53;78.62
74552;BME280;63025;55.472;38.432;2022-12-18T07:04:17;99740.63;;;-2.57;78.32
74552;BME280;63025;55.472;38.432;2022-12-18T07:06:43;99748.50;;;-2.57;78.38
74552;BME280;63025;55.472;38.432;2022-12-18T07:09:08;99755.19;;;-2.53;78.66
74552;BME280;63025;55.472;38.432;2022-12-18T07:11:35;99740.66;;;-2.47;78.75
74552;BME280;63025;55.472;38.432;2022-12-18T07:14:01;99751.72;;;-2.53;77.88
74552;BME280;63025;55.472;38.432;2022-12-18T07:16:27;99768.22;;;-2.51;78.50
74552;BME280;63025;55.472;38.432;2022-12-18T07:18:54;99773.47;;;-2.51;78.42
74552;BME280;63025;55.472;38.432;2022-12-18T07:21:21;99779.69;;;-2.52;77.98
74552;BME280;63025;55.472;38.432;2022-12-18T07:23:47;99777.91;;;-2.52;77.80
74552;BME280;63025;55.472;38.432;2022-12-18T07:26:16;99778.03;;;-2.53;78.06
74552;BME280;63025;55.472;38.432;2022-12-18T07:28:42;99783.97;;;-2.61;77.56
74552;BME280;63025;55.472;38.432;2022-12-18T07:31:12;99797.13;;;-2.61;77.26
74552;BME280;63025;55.472;38.432;2022-12-18T07:33:38;99804.91;;;-2.50;77.80
74552;BME280;63025;55.472;38.432;2022-12-18T07:36:05;99817.38;;;-2.52;77.24
74552;BME280;63025;55.472;38.432;2022-12-18T07:38:33;99822.34;;;-2.49;77.54
74552;BME280;63025;55.472;38.432;2022-12-18T07:41:04;99829.97;;;-2.46;77.75
74552;BME280;63025;55.472;38.432;2022-12-18T07:43:30;99823.50;;;-2.42;77.13
74552;BME280;63025;55.472;38.432;2022-12-18T07:45:56;99825.41;;;-2.44;76.90
74552;BME280;63025;55.472;38.432;2022-12-18T07:48:22;99830.44;;;-2.41;76.99
74552;BME280;63025;55.472;38.432;2022-12-18T07:50:48;99829.00;;;-2.45;76.24
74552;BME280;63025;55.472;38.432;2022-12-18T07:53:14;99828.47;;;-2.39;76.28
74552;BME280;63025;55.472;38.432;2022-12-18T07:55:41;99826.41;;;-2.35;76.32
74552;BME280;63025;55.472;38.432;2022-12-18T07:58:07;99834.34;;;-2.26;77.22
74552;BME280;63025;55.472;38.432;2022-12-18T08:00:34;99846.28;;;-2.22;77.21
74552;BME280;63025;55.472;38.432;2022-12-18T08:03:00;99831.59;;;-2.24;77.11
74552;BME280;63025;55.472;38.432;2022-12-18T08:05:26;99836.38;;;-2.39;76.29
74552;BME280;63025;55.472;38.432;2022-12-18T08:07:52;99849.59;;;-2.29;77.02
74552;BME280;63025;55.472;38.432;2022-12-18T08:10:19;99859.78;;;-2.36;76.37
74552;BME280;63025;55.472;38.432;2022-12-18T08:12:48;99855.38;;;-2.35;76.68
74552;BME280;63025;55.472;38.432;2022-12-18T08:15:14;99865.50;;;-2.31;76.06
74552;BME280;63025;55.472;38.432;2022-12-18T08:17:40;99868.31;;;-2.23;76.54
74552;BME280;63025;55.472;38.432;2022-12-18T08:20:06;99857.91;;;-2.24;76.41
74552;BME280;63025;55.472;38.432;2022-12-18T08:22:34;99875.66;;;-2.16;76.37
74552;BME280;63025;55.472;38.432;2022-12-18T08:25:01;99868.78;;;-2.08;76.76
74552;BME280;63025;55.472;38.432;2022-12-18T08:27:29;99868.56;;;-2.26;75.87
74552;BME280;63025;55.472;38.432;2022-12-18T08:29:55;99875.19;;;-2.31;75.93
74552;BME280;63025;55.472;38.432;2022-12-18T08:32:21;99886.16;;;-2.26;76.11
74552;BME280;63025;55.472;38.432;2022-12-18T08:34:47;99895.59;;;-2.24;76.39
74552;BME280;63025;55.472;38.432;2022-12-18T08:37:13;99900.50;;;-2.09;76.54
74552;BME280;63025;55.472;38.432;2022-12-18T08:39:38;99912.13;;;-2.12;76.12
74552;BME280;63025;55.472;38.432;2022-12-18T08:42:04;99923.88;;;-2.16;75.91
74552;BME280;63025;55.472;38.432;2022-12-18T08:44:49;99923.13;;;-2.28;76.46
74552;BME280;63025;55.472;38.432;2022-12-18T08:47:15;99935.59;;;-2.30;76.08
74552;BME280;63025;55.472;38.432;2022-12-18T08:49:40;99937.41;;;-2.30;76.17
74552;BME280;63025;55.472;38.432;2022-12-18T08:52:06;99944.59;;;-2.32;75.95
74552;BME280;63025;55.472;38.432;2022-12-18T08:54:32;99955.13;;;-2.32;75.65
74552;BME280;63025;55.472;38.432;2022-12-18T08:56:58;99960.31;;;-2.42;75.97
74552;BME280;63025;55.472;38.432;2022-12-18T08:59:24;99958.31;;;-2.29;76.78
74552;BME280;63025;55.472;38.432;2022-12-18T09:01:49;99957.81;;;-2.43;76.68
74552;BME280;63025;55.472;38.432;2022-12-18T09:04:15;99951.41;;;-2.30;76.53
74552;BME280;63025;55.472;38.432;2022-12-18T09:06:41;99934.41;;;-2.16;76.39
74552;BME280;63025;55.472;38.432;2022-12-18T09:09:07;99937.63;;;-2.12;76.27
74552;BME280;63025;55.472;38.432;2022-12-18T09:11:33;99949.41;;;-2.07;76.29
74552;BME280;63025;55.472;38.432;2022-12-18T09:14:00;99942.06;;;-2.34;75.75
74552;BME280;63025;55.472;38.432;2022-12-18T09:16:27;99937.06;;;-2.37;75.30
74552;BME280;63025;55.472;38.432;2022-12-18T09:18:57;99950.69;;;-2.32;75.97
74552;BME280;63025;55.472;38.432;2022-12-18T09:21:27;99942.06;;;-2.34;75.51
74552;BME280;63025;55.472;38.432;2022-12-18T09:23:54;99950.94;;;-2.35;76.02
74552;BME280;63025;55.472;38.432;2022-12-18T09:26:21;99946.63;;;-2.36;75.76
74552;BME280;63025;55.472;38.432;2022-12-18T09:28:47;99961.28;;;-2.43;75.81
74552;BME280;63025;55.472;38.432;2022-12-18T09:31:15;99970.31;;;-2.36;76.00
74552;BME280;63025;55.472;38.432;2022-12-18T09:33:42;99972.75;;;-2.44;75.61
74552;BME280;63025;55.472;38.432;2022-12-18T09:36:10;99963.66;;;-2.40;75.74
74552;BME280;63025;55.472;38.432;2022-12-18T09:38:37;99978.91;;;-2.34;76.01
74552;BME280;63025;55.472;38.432;2022-12-18T09:44:01;99993.75;;;-2.33;74.84
74552;BME280;63025;55.472;38.432;2022-12-18T09:46:35;100010.97;;;-2.29;74.92
74552;BME280;63025;55.472;38.432;2022-12-18T09:49:09;100008.56;;;-2.11;75.57
74552;BME280;63025;55.472;38.432;2022-12-18T09:51:46;100011.25;;;-2.01;75.57
74552;BME280;63025;55.472;38.432;2022-12-18T09:54:21;100010.47;;;-1.92;75.50
74552;BME280;63025;55.472;38.432;2022-12-18T09:56:48;100005.47;;;-1.95;74.94
74552;BME280;63025;55.472;38.432;2022-12-18T09:59:34;100010.56;;;-2.03;74.36
74552;BME280;63025;55.472;38.432;2022-12-18T10:02:13;100006.06;;;-2.12;74.55
74552;BME280;63025;55.472;38.432;2022-12-18T10:04:40;100022.69;;;-2.12;74.42
74552;BME280;63025;55.472;38.432;2022-12-18T10:07:30;100017.31;;;-2.10;74.70
74552;BME280;63025;55.472;38.432;2022-12-18T10:15:34;100020.41;;;-1.96;74.49
74552;BME280;63025;55.472;38.432;2022-12-18T10:18:17;100020.56;;;-1.97;74.48
74552;BME280;63025;55.472;38.432;2022-12-18T10:20:49;100029.63;;;-1.90;74.43
74552;BME280;63025;55.472;38.432;2022-12-18T10:26:03;100028.91;;;-1.92;74.88
74552;BME280;63025;55.472;38.432;2022-12-18T10:28:31;100032.31;;;-2.01;74.49
74552;BME280;63025;55.472;38.432;2022-12-18T10:30:58;100030.97;;;-1.96;75.58
74552;BME280;63025;55.472;38.432;2022-12-18T10:33:28;100052.69;;;-2.03;74.74
74552;BME280;63025;55.472;38.432;2022-12-18T10:35:54;100046.97;;;-2.08;75.14
74552;BME280;63025;55.472;38.432;2022-12-18T10:38:27;100061.53;;;-2.04;75.35
74552;BME280;63025;55.472;38.432;2022-12-18T10:43:34;100060.88;;;-1.76;76.11
74552;BME280;63025;55.472;38.432;2022-12-18T10:48:34;100061.44;;;-1.72;75.78
74552;BME280;63025;55.472;38.432;2022-12-18T10:51:02;100076.16;;;-1.70;75.97
74552;BME280;63025;55.472;38.432;2022-12-18T10:53:30;100080.47;;;-1.69;75.89
74552;BME280;63025;55.472;38.432;2022-12-18T10:56:00;100093.06;;;-1.72;75.62
74552;BME280;63025;55.472;38.432;2022-12-18T10:58:33;100098.66;;;-1.87;75.73
74552;BME280;63025;55.472;38.432;2022-12-18T11:01:17;100100.06;;;-1.82;76.23
74552;BME280;63025;55.472;38.432;2022-12-18T11:03:59;100103.59;;;-1.93;75.50
74552;BME280;63025;55.472;38.432;2022-12-18T11:06:26;100104.38;;;-1.81;75.87
74552;BME280;63025;55.472;38.432;2022-12-18T11:09:00;100108.63;;;-1.90;75.96
74552;BME280;63025;55.472;38.432;2022-12-18T11:11:28;100126.47;;;-1.94;76.03
74552;BME280;63025;55.472;38.432;2022-12-18T11:14:12;100125.75;;;-1.96;75.82
74552;BME280;63025;55.472;38.432;2022-12-18T11:16:45;100135.72;;;-1.99;76.00
74552;BME280;63025;55.472;38.432;2022-12-18T11:21:55;100131.38;;;-1.89;76.47
74552;BME280;63025;55.472;38.432;2022-12-18T11:24:33;100125.81;;;-1.86;75.71
74552;BME280;63025;55.472;38.432;2022-12-18T11:27:20;100120.63;;;-1.97;75.88
74552;BME280;63025;55.472;38.432;2022-12-18T11:29:49;100130.19;;;-1.96;75.79
74552;BME280;63025;55.472;38.432;2022-12-18T11:35:15;100135.28;;;-1.83;76.67
74552;BME280;63025;55.472;38.432;2022-12-18T11:37:47;100131.84;;;-1.95;76.10
74552;BME280;63025;55.472;38.432;2022-12-18T11:40:22;100131.66;;;-2.03;76.40
74552;BME280;63025;55.472;38.432;2022-12-18T11:53:03;100149.91;;;-2.11;76.66
74552;BME280;63025;55.472;38.432;2022-12-18T12:10:27;100185.72;;;-2.20;77.04
74552;BME280;63025;55.472;38.432;2022-12-18T12:21:04;100204.03;;;-2.18;77.55
74552;BME280;63025;55.472;38.432;2022-12-18T12:34:23;100210.84;;;-2.27;77.50
74552;BME280;63025;55.472;38.432;2022-12-18T12:39:40;100218.16;;;-2.31;77.79
74552;BME280;63025;55.472;38.432;2022-12-18T12:42:29;100225.56;;;-2.25;78.24
74552;BME280;63025;55.472;38.432;2022-12-18T12:45:23;100235.25;;;-2.25;78.17
74552;BME280;63025;55.472;38.432;2022-12-18T12:47:53;100254.41;;;-2.23;78.49
74552;BME280;63025;55.472;38.432;2022-12-18T12:50:21;100252.13;;;-2.28;78.31
74552;BME280;63025;55.472;38.432;2022-12-18T12:52:52;100263.88;;;-2.43;78.22
74552;BME280;63025;55.472;38.432;2022-12-18T12:55:22;100270.09;;;-2.33;78.55
74552;BME280;63025;55.472;38.432;2022-12-18T13:00:31;100266.84;;;-2.47;78.58
74552;BME280;63025;55.472;38.432;2022-12-18T13:06:07;100280.13;;;-2.49;78.25
74552;BME280;63025;55.472;38.432;2022-12-18T13:08:54;100276.53;;;-2.48;78.25
74552;BME280;63025;55.472;38.432;2022-12-18T13:19:44;100296.28;;;-2.53;78.21
74552;BME280;63025;55.472;38.432;2022-12-18T13:25:02;100308.94;;;-2.70;78.62
74552;BME280;63025;55.472;38.432;2022-12-18T13:38:34;100340.19;;;-2.54;78.94
74552;BME280;63025;55.472;38.432;2022-12-18T13:43:51;100348.41;;;-2.59;78.28
74552;BME280;63025;55.472;38.432;2022-12-18T13:46:48;100352.25;;;-2.63;78.53
74552;BME280;63025;55.472;38.432;2022-12-18T13:51:51;100367.66;;;-2.69;78.52
74552;BME280;63025;55.472;38.432;2022-12-18T13:56:52;100365.03;;;-2.69;78.75
74552;BME280;63025;55.472;38.432;2022-12-18T13:59:26;100386.56;;;-2.64;78.65
74552;BME280;63025;55.472;38.432;2022-12-18T14:01:53;100385.13;;;-2.68;78.99
74552;BME280;63025;55.472;38.432;2022-12-18T14:06:51;100385.63;;;-2.52;78.93
74552;BME280;63025;55.472;38.432;2022-12-18T14:09:27;100397.09;;;-2.64;79.20
74552;BME280;63025;55.472;38.432;2022-12-18T14:11:55;100401.41;;;-2.63;79.19
74552;BME280;63025;55.472;38.432;2022-12-18T14:14:47;100412.03;;;-2.65;78.83
74552;BME280;63025;55.472;38.432;2022-12-18T14:17:15;100414.44;;;-2.62;78.74
74552;BME280;63025;55.472;38.432;2022-12-18T14:19:43;100420.78;;;-2.53;79.27
74552;BME280;63025;55.472;38.432;2022-12-18T14:22:20;100422.94;;;-2.47;78.75
74552;BME280;63025;55.472;38.432;2022-12-18T14:24:47;100430.84;;;-2.47;79.13
74552;BME280;63025;55.472;38.432;2022-12-18T14:27:30;100434.75;;;-2.64;78.43
74552;BME280;63025;55.472;38.432;2022-12-18T14:29:56;100435.81;;;-2.66;78.63
74552;BME280;63025;55.472;38.432;2022-12-18T14:32:23;100427.19;;;-2.68;78.79
74552;BME280;63025;55.472;38.432;2022-12-18T14:34:53;100431.25;;;-2.75;78.05
74552;BME280;63025;55.472;38.432;2022-12-18T14:37:24;100442.75;;;-2.65;79.27
74552;BME280;63025;55.472;38.432;2022-12-18T14:39:54;100432.72;;;-2.71;78.95
74552;BME280;63025;55.472;38.432;2022-12-18T14:42:20;100443.81;;;-2.68;78.84
74552;BME280;63025;55.472;38.432;2022-12-18T14:44:46;100432.81;;;-2.73;79.02
74552;BME280;63025;55.472;38.432;2022-12-18T14:47:15;100452.06;;;-2.72;78.65
74552;BME280;63025;55.472;38.432;2022-12-18T14:49:42;100464.53;;;-2.63;78.65
74552;BME280;63025;55.472;38.432;2022-12-18T14:52:27;100458.41;;;-2.75;78.62
74552;BME280;63025;55.472;38.432;2022-12-18T14:54:56;100473.06;;;-2.83;79.10
74552;BME280;63025;55.472;38.432;2022-12-18T14:57:30;100472.34;;;-2.85;79.11
74552;BME280;63025;55.472;38.432;2022-12-18T15:00:14;100470.81;;;-2.77;79.17
74552;BME280;63025;55.472;38.432;2022-12-18T15:02:41;100477.38;;;-2.82;79.05
74552;BME280;63025;55.472;38.432;2022-12-18T15:07:42;100487.16;;;-2.84;79.16
74552;BME280;63025;55.472;38.432;2022-12-18T15:10:17;100487.50;;;-2.89;78.45
74552;BME280;63025;55.472;38.432;2022-12-18T15:13:29;100494.91;;;-2.94;78.63
74552;BME280;63025;55.472;38.432;2022-12-18T15:20:44;100511.91;;;-2.87;78.70
74552;BME280;63025;55.472;38.432;2022-12-18T15:23:28;100518.94;;;-2.87;78.98
74552;BME280;63025;55.472;38.432;2022-12-18T15:28:47;100512.47;;;-2.94;79.41
74552;BME280;63025;55.472;38.432;2022-12-18T15:33:47;100527.72;;;-3.00;78.95